createdAt,value
2022-09-23T00:01:20.483Z,99869.75
2022-09-23T00:03:48.908Z,99877.56
2022-09-23T00:06:19.469Z,99867.56
2022-09-23T00:08:47.355Z,99874.03
2022-09-23T00:11:20.954Z,99865.94
2022-09-23T00:13:51.782Z,99871.22
2022-09-23T00:16:22.586Z,99865.03
2022-09-23T00:18:50.402Z,99866.53
2022-09-23T00:21:19.239Z,99867.84
2022-09-23T00:23:47.601Z,99868.69
2022-09-23T00:26:17.326Z,99864.44
2022-09-23T00:28:45.366Z,99865.50
2022-09-23T00:31:22.278Z,99862.25
2022-09-23T00:33:57.605Z,99866.47
2022-09-23T00:36:26.521Z,99856.69
2022-09-23T00:38:54.765Z,99862.06
2022-09-23T00:41:22.633Z,99853.63
2022-09-23T00:43:50.458Z,99857.34
2022-09-23T00:46:22.164Z,99852.03
2022-09-23T00:48:54.459Z,99849.94
2022-09-23T00:51:24.401Z,99849.94
2022-09-23T00:53:52.853Z,99857.25
2022-09-23T00:56:21.512Z,99847.38
2022-09-23T00:58:49.773Z,99850.59
2022-09-23T01:01:18.223Z,99856.22
2022-09-23T01:03:46.058Z,99846.69
2022-09-23T01:06:14.084Z,99844.00
2022-09-23T01:08:44.056Z,99844.28
2022-09-23T01:11:23.725Z,99852.59
2022-09-23T01:14:10.423Z,99850.19
2022-09-23T01:16:45.664Z,99848.28
2022-09-23T01:19:32.052Z,99846.16
2022-09-23T01:22:23.932Z,99842.94
2022-09-23T01:25:02.057Z,99848.53
2022-09-23T01:28:08.997Z,99846.47
2022-09-23T01:30:58.439Z,99847.28
2022-09-23T01:33:55.246Z,99845.12
2022-09-23T01:36:29.068Z,99850.19
2022-09-23T01:39:13.231Z,99852.62
2022-09-23T01:41:56.376Z,99843.34
2022-09-23T01:44:51.592Z,99844.09
2022-09-23T01:47:24.426Z,99840.87
2022-09-23T01:50:00.437Z,99839.28
2022-09-23T01:52:35.692Z,99843.38
2022-09-23T01:55:12.074Z,99842.03
2022-09-23T01:57:57.784Z,99840.31
2022-09-23T02:00:27.128Z,99850.06
2022-09-23T02:03:02.265Z,99843.84
2022-09-23T02:05:34.553Z,99841.50
2022-09-23T02:08:13.276Z,99839.78
2022-09-23T02:10:45.197Z,99843.53
2022-09-23T02:13:23.747Z,99837.34
2022-09-23T02:15:54.560Z,99843.97
2022-09-23T02:18:25.328Z,99834.13
2022-09-23T02:20:56.121Z,99837.16
2022-09-23T02:23:35.487Z,99837.66
2022-09-23T02:26:08.351Z,99837.94
2022-09-23T02:29:10.351Z,99836.59
2022-09-23T02:32:00.414Z,99842.22
2022-09-23T02:34:48.624Z,99833.09
2022-09-23T02:37:31.547Z,99834.25
2022-09-23T02:40:09.043Z,99832.38
2022-09-23T02:42:45.979Z,99832.87
2022-09-23T02:45:13.966Z,99829.62
2022-09-23T02:47:42.665Z,99827.22
2022-09-23T02:50:10.339Z,99832.59
2022-09-23T02:52:38.275Z,99831.53
2022-09-23T02:55:06.811Z,99836.88
2022-09-23T02:57:34.816Z,99832.59
2022-09-23T03:00:03.521Z,99834.94
2022-09-23T03:02:31.146Z,99829.53
2022-09-23T03:05:10.887Z,99831.41
2022-09-23T03:08:00.716Z,99829.31
2022-09-23T03:10:37.716Z,99823.94
2022-09-23T03:13:28.719Z,99834.56
2022-09-23T03:16:00.173Z,99820.47
2022-09-23T03:18:44.871Z,99825.53
2022-09-23T03:21:32.698Z,99819.91
2022-09-23T03:24:03.126Z,99821.03
2022-09-23T03:26:33.625Z,99827.66
2022-09-23T03:29:07.323Z,99824.28
2022-09-23T03:31:36.761Z,99822.62
2022-09-23T03:34:10.456Z,99827.13
2022-09-23T03:36:45.195Z,99828.97
2022-09-23T03:39:24.176Z,99828.97
2022-09-23T03:41:52.941Z,99829.06
2022-09-23T03:44:24.915Z,99826.97
2022-09-23T03:46:52.527Z,99827.69
2022-09-23T03:49:25.086Z,99832.50
2022-09-23T03:51:53.867Z,99827.50
2022-09-23T03:54:21.692Z,99830.44
2022-09-23T03:56:49.298Z,99829.41
2022-09-23T03:59:17.415Z,99828.31
2022-09-23T04:01:45.115Z,99833.22
2022-09-23T04:04:12.982Z,99823.38
2022-09-23T04:06:40.561Z,99837.38
2022-09-23T04:09:08.743Z,99833.81
2022-09-23T04:11:36.792Z,99842.69
2022-09-23T04:14:04.462Z,99840.06
2022-09-23T04:16:32.096Z,99835.44
2022-09-23T04:18:59.981Z,99844.03
2022-09-23T04:21:27.568Z,99848.06
2022-09-23T04:23:55.277Z,99844.34
2022-09-23T04:26:23.183Z,99843.16
2022-09-23T04:28:50.746Z,99846.03
2022-09-23T04:31:18.401Z,99847.78
2022-09-23T04:33:46.388Z,99848.94
2022-09-23T04:36:14.053Z,99852.22
2022-09-23T04:38:45.963Z,99849.09
2022-09-23T04:41:14.171Z,99851.00
2022-09-23T04:43:42.290Z,99862.41
2022-09-23T04:46:11.953Z,99858.94
2022-09-23T04:48:42.787Z,99860.09
2022-09-23T04:51:16.150Z,99862.50
2022-09-23T04:53:45.716Z,99861.69
2022-09-23T04:56:16.695Z,99856.84
2022-09-23T04:58:44.746Z,99863.53
2022-09-23T05:01:20.997Z,99860.62
2022-09-23T05:03:49.189Z,99865.97
2022-09-23T05:06:19.529Z,99867.31
2022-09-23T05:08:53.314Z,99876.41
2022-09-23T05:11:22.414Z,99872.34
2022-09-23T05:13:52.149Z,99879.03
2022-09-23T05:16:20.589Z,99874.81
2022-09-23T05:18:49.356Z,99879.34
2022-09-23T05:21:20.264Z,99877.50
2022-09-23T05:23:50.087Z,99882.28
2022-09-23T05:26:17.802Z,99886.00
2022-09-23T05:28:45.484Z,99888.19
2022-09-23T05:31:20.354Z,99894.28
2022-09-23T05:33:52.674Z,99895.06
2022-09-23T05:36:24.915Z,99886.22
2022-09-23T05:38:52.906Z,99890.50
2022-09-23T05:41:21.760Z,99896.94
2022-09-23T05:43:50.648Z,99890.22
2022-09-23T05:46:21.403Z,99895.53
2022-09-23T05:48:49.477Z,99901.41
2022-09-23T05:51:22.003Z,99902.41
2022-09-23T05:53:51.318Z,99901.00
2022-09-23T05:56:20.980Z,99893.59
2022-09-23T05:58:49.869Z,99904.63
2022-09-23T06:01:20.286Z,99907.78
2022-09-23T06:03:49.008Z,99894.81
2022-09-23T06:06:18.296Z,99898.50
2022-09-23T06:08:46.624Z,99890.62
2022-09-23T06:11:14.515Z,99897.75
2022-09-23T06:13:42.145Z,99890.09
2022-09-23T06:16:11.861Z,99890.50
2022-09-23T06:18:41.304Z,99891.09
2022-09-23T06:21:10.621Z,99892.91
2022-09-23T06:23:41.269Z,99895.69
2022-09-23T06:26:10.283Z,99902.78
2022-09-23T06:28:39.209Z,99896.41
2022-09-23T06:31:13.414Z,99901.41
2022-09-23T06:33:42.636Z,99904.25
2022-09-23T06:36:11.067Z,99898.88
2022-09-23T06:38:40.526Z,99898.19
2022-09-23T06:41:08.491Z,99897.44
2022-09-23T06:43:36.055Z,99904.50
2022-09-23T06:46:05.515Z,99912.31
2022-09-23T06:48:34.219Z,99914.88
2022-09-23T06:51:03.898Z,99911.25
2022-09-23T06:53:31.836Z,99910.69
2022-09-23T06:56:03.917Z,99915.97
2022-09-23T06:58:33.380Z,99917.13
2022-09-23T07:01:07.130Z,99920.66
2022-09-23T07:03:35.674Z,99916.66
2022-09-23T07:06:04.354Z,99917.66
2022-09-23T07:08:32.477Z,99922.13
2022-09-23T07:11:02.606Z,99929.88
2022-09-23T07:13:30.957Z,99925.72
2022-09-23T07:15:59.456Z,99927.06
2022-09-23T07:18:30.974Z,99930.06
2022-09-23T07:21:15.565Z,99937.34
2022-09-23T07:23:45.012Z,99933.34
2022-09-23T07:26:13.732Z,99941.16
2022-09-23T07:28:41.375Z,99940.97
2022-09-23T07:31:14.783Z,99944.56
2022-09-23T07:33:43.335Z,99939.97
2022-09-23T07:36:16.229Z,99938.47
2022-09-23T07:38:45.894Z,99949.44
2022-09-23T07:41:16.968Z,99947.53
2022-09-23T07:43:45.564Z,99942.06
2022-09-23T07:46:15.773Z,99943.75
2022-09-23T07:48:44.611Z,99952.12
2022-09-23T07:51:18.573Z,99961.00
2022-09-23T07:53:47.576Z,99958.00
2022-09-23T07:56:19.697Z,99950.84
2022-09-23T07:58:49.089Z,99956.78
2022-09-23T08:01:16.947Z,99952.06
2022-09-23T08:03:45.509Z,99947.06
2022-09-23T08:06:13.642Z,99942.81
2022-09-23T08:08:41.537Z,99938.50
2022-09-23T08:11:11.245Z,99940.34
2022-09-23T08:13:39.017Z,99940.59
2022-09-23T08:16:06.774Z,99939.25
2022-09-23T08:18:34.889Z,99939.09
2022-09-23T08:21:02.699Z,99937.88
2022-09-23T08:23:30.278Z,99930.09
2022-09-23T08:26:02.660Z,99936.31
2022-09-23T08:28:30.752Z,99941.13
2022-09-23T08:30:59.231Z,99932.63
2022-09-23T08:33:27.523Z,99935.41
2022-09-23T08:36:01.857Z,99941.06
2022-09-23T08:38:30.329Z,99942.44
2022-09-23T08:41:32.034Z,99942.03
2022-09-23T08:44:03.883Z,99938.28
2022-09-23T08:46:35.341Z,99938.31
2022-09-23T08:49:04.835Z,99933.72
2022-09-23T08:51:45.847Z,99930.19
2022-09-23T08:54:16.533Z,99924.28
2022-09-23T08:56:48.943Z,99923.19
2022-09-23T08:59:39.447Z,99931.94
2022-09-23T09:02:23.157Z,99917.44
2022-09-23T09:04:54.568Z,99916.97
2022-09-23T09:07:36.278Z,99915.69
2022-09-23T09:10:05.349Z,99921.44
2022-09-23T09:12:37.875Z,99920.66
2022-09-23T09:15:10.007Z,99923.66
2022-09-23T09:17:40.096Z,99923.63
2022-09-23T09:20:15.811Z,99924.09
2022-09-23T09:22:55.088Z,99925.25
2022-09-23T09:25:41.234Z,99922.31
2022-09-23T09:28:41.584Z,99919.47
2022-09-23T09:31:24.333Z,99916.53
2022-09-23T09:34:02.702Z,99919.44
2022-09-23T09:36:40.074Z,99921.47
2022-09-23T09:39:11.850Z,99924.72
2022-09-23T09:41:41.946Z,99919.25
2022-09-23T09:44:25.983Z,99928.72
2022-09-23T09:47:15.072Z,99918.81
2022-09-23T09:50:00.528Z,99912.28
2022-09-23T09:52:29.434Z,99914.75
2022-09-23T09:55:12.726Z,99913.19
2022-09-23T09:58:02.791Z,99911.66
2022-09-23T10:00:30.467Z,99902.91
2022-09-23T10:03:03.631Z,99916.19
2022-09-23T10:05:51.258Z,99894.44
2022-09-23T10:08:34.018Z,99893.97
2022-09-23T10:11:12.987Z,99894.13
2022-09-23T10:13:42.011Z,99895.78
2022-09-23T10:16:09.617Z,99902.44
2022-09-23T10:18:38.284Z,99888.53
2022-09-23T10:21:11.831Z,99887.22
2022-09-23T10:23:42.230Z,99886.75
2022-09-23T10:26:11.428Z,99883.09
2022-09-23T10:28:50.171Z,99883.66
2022-09-23T10:31:35.276Z,99886.84
2022-09-23T10:34:23.310Z,99879.00
2022-09-23T10:37:03.600Z,99874.13
2022-09-23T10:39:31.416Z,99883.19
2022-09-23T10:42:05.186Z,99876.84
2022-09-23T10:44:45.930Z,99874.59
2022-09-23T10:47:32.090Z,99883.19
2022-09-23T10:50:23.942Z,99880.47
2022-09-23T10:53:09.836Z,99875.28
2022-09-23T10:55:47.469Z,99868.81
2022-09-23T10:58:56.143Z,99863.78
2022-09-23T11:01:48.816Z,99853.47
2022-09-23T11:04:44.291Z,99861.53
2022-09-23T11:08:00.084Z,99858.84
2022-09-23T11:10:58.959Z,99860.53
2022-09-23T11:13:54.731Z,99850.44
2022-09-23T11:16:39.253Z,99849.53
2022-09-23T11:19:25.653Z,99848.06
2022-09-23T11:21:56.269Z,99845.66
2022-09-23T11:24:24.459Z,99844.62
2022-09-23T11:26:52.279Z,99839.63
2022-09-23T11:29:47.029Z,99842.13
2022-09-23T11:32:14.564Z,99834.47
2022-09-23T11:34:45.354Z,99834.50
2022-09-23T11:37:20.357Z,99833.00
2022-09-23T11:39:57.606Z,99828.13
2022-09-23T11:42:41.076Z,99827.50
2022-09-23T11:45:16.508Z,99820.72
2022-09-23T11:47:48.914Z,99819.06
2022-09-23T11:50:26.008Z,99814.91
2022-09-23T11:52:57.860Z,99808.53
2022-09-23T11:55:28.784Z,99812.66
2022-09-23T11:57:57.326Z,99806.88
2022-09-23T12:00:27.092Z,99809.75
2022-09-23T12:03:07.099Z,99806.09
2022-09-23T12:06:01.574Z,99805.03
2022-09-23T12:08:36.677Z,99804.31
2022-09-23T12:11:04.268Z,99798.50
2022-09-23T12:14:00.685Z,99801.94
2022-09-23T12:16:48.711Z,99799.69
2022-09-23T12:19:27.662Z,99805.50
2022-09-23T12:22:14.926Z,99797.69
2022-09-23T12:25:07.574Z,99796.84
2022-09-23T12:27:38.037Z,99797.88
2022-09-23T12:30:17.089Z,99798.62
2022-09-23T12:32:45.224Z,99789.31
2022-09-23T12:35:31.271Z,99789.81
2022-09-23T12:38:02.344Z,99785.91
2022-09-23T12:40:35.134Z,99780.06
2022-09-23T12:43:02.924Z,99781.53
2022-09-23T12:45:30.786Z,99779.87
2022-09-23T12:48:00.056Z,99779.66
2022-09-23T12:50:47.482Z,99777.09
2022-09-23T12:53:33.597Z,99770.91
2022-09-23T12:56:19.692Z,99767.31
2022-09-23T12:58:47.556Z,99766.63
2022-09-23T13:01:15.334Z,99767.25
2022-09-23T13:04:01.115Z,99759.97
2022-09-23T13:06:44.031Z,99769.38
2022-09-23T13:09:17.561Z,99758.53
2022-09-23T13:11:46.047Z,99758.72
2022-09-23T13:14:17.276Z,99760.00
2022-09-23T13:16:45.761Z,99755.44
2022-09-23T13:19:27.397Z,99745.19
2022-09-23T13:22:06.989Z,99753.06
2022-09-23T13:24:41.032Z,99750.06
2022-09-23T13:27:15.037Z,99746.16
2022-09-23T13:30:06.044Z,99745.66
2022-09-23T13:32:37.532Z,99740.84
2022-09-23T13:35:24.881Z,99738.00
2022-09-23T13:37:53.239Z,99737.69
2022-09-23T13:40:26.407Z,99739.19
2022-09-23T13:43:03.466Z,99742.91
2022-09-23T13:45:31.617Z,99743.88
2022-09-23T13:48:09.031Z,99738.34
2022-09-23T13:50:38.667Z,99732.78
2022-09-23T13:53:10.772Z,99730.53
2022-09-23T13:55:39.266Z,99729.50
2022-09-23T13:58:22.084Z,99739.12
2022-09-23T14:00:50.663Z,99731.69
2022-09-23T14:03:27.109Z,99737.28
2022-09-23T14:05:55.722Z,99729.84
2022-09-23T14:08:24.018Z,99729.06
2022-09-23T14:10:51.971Z,99729.19
2022-09-23T14:13:26.322Z,99721.03
2022-09-23T14:15:56.620Z,99719.53
2022-09-23T14:18:29.184Z,99724.50
2022-09-23T14:20:57.250Z,99720.44
2022-09-23T14:23:24.903Z,99718.91
2022-09-23T14:25:53.881Z,99717.56
2022-09-23T14:28:23.534Z,99719.72
2022-09-23T14:30:53.116Z,99723.84
2022-09-23T14:33:30.972Z,99718.91
2022-09-23T14:36:07.644Z,99713.50
2022-09-23T14:38:35.980Z,99713.19
2022-09-23T14:41:03.777Z,99712.66
2022-09-23T14:43:31.590Z,99714.09
2022-09-23T14:45:59.894Z,99713.63
2022-09-23T14:48:33.033Z,99710.59
2022-09-23T14:51:06.070Z,99704.91
2022-09-23T14:53:39.188Z,99706.75
2022-09-23T14:56:07.023Z,99704.37
2022-09-23T14:58:53.286Z,99709.34
2022-09-23T15:01:33.451Z,99699.75
2022-09-23T15:04:13.350Z,99697.66
2022-09-23T15:07:08.723Z,99697.94
2022-09-23T15:09:38.923Z,99697.28
2022-09-23T15:12:18.888Z,99701.00
2022-09-23T15:14:51.380Z,99696.25
2022-09-23T15:17:34.873Z,99689.63
2022-09-23T15:20:05.735Z,99688.87
2022-09-23T15:22:45.863Z,99693.41
2022-09-23T15:25:33.001Z,99691.59
2022-09-23T15:28:08.521Z,99689.28
2022-09-23T15:30:36.802Z,99696.75
2022-09-23T15:33:05.380Z,99689.81
2022-09-23T15:35:33.364Z,99693.91
2022-09-23T15:38:01.426Z,99698.63
2022-09-23T15:40:34.586Z,99694.09
2022-09-23T15:43:31.002Z,99683.91
2022-09-23T15:46:03.776Z,99682.78
2022-09-23T15:48:39.855Z,99682.19
2022-09-23T15:51:08.083Z,99683.44
2022-09-23T15:53:38.489Z,99685.16
2022-09-23T15:56:06.348Z,99683.19
2022-09-23T15:58:34.627Z,99678.56
2022-09-23T16:01:03.225Z,99683.22
2022-09-23T16:03:31.536Z,99679.19
2022-09-23T16:06:01.190Z,99679.00
2022-09-23T16:08:31.380Z,99679.19
2022-09-23T16:10:59.383Z,99679.72
2022-09-23T16:13:27.134Z,99683.19
2022-09-23T16:15:56.085Z,99688.34
2022-09-23T16:18:24.240Z,99695.22
2022-09-23T16:20:51.848Z,99687.28
2022-09-23T16:23:34.229Z,99686.34
2022-09-23T16:26:05.441Z,99688.31
2022-09-23T16:28:33.337Z,99679.78
2022-09-23T16:31:00.913Z,99680.09
2022-09-23T16:33:28.887Z,99682.22
2022-09-23T16:35:59.656Z,99682.88
2022-09-23T16:38:27.842Z,99678.44
2022-09-23T16:40:56.509Z,99681.31
2022-09-23T16:43:24.324Z,99676.19
2022-09-23T16:45:51.954Z,99682.72
2022-09-23T16:48:19.961Z,99680.81
2022-09-23T16:50:48.596Z,99682.56
2022-09-23T16:53:16.244Z,99680.00
2022-09-23T16:55:44.168Z,99679.81
2022-09-23T16:58:11.812Z,99675.22
2022-09-23T17:00:39.524Z,99677.59
2022-09-23T17:03:07.845Z,99676.47
2022-09-23T17:05:35.508Z,99679.78
2022-09-23T17:08:03.276Z,99673.09
2022-09-23T17:10:31.170Z,99674.53
2022-09-23T17:12:58.916Z,99680.06
2022-09-23T17:15:26.594Z,99679.38
2022-09-23T17:17:54.540Z,99673.31
2022-09-23T17:20:22.279Z,99679.03
2022-09-23T17:22:49.974Z,99679.16
2022-09-23T17:25:17.927Z,99680.31
2022-09-23T17:27:47.808Z,99684.75
2022-09-23T17:30:15.603Z,99685.91
2022-09-23T17:32:43.442Z,99682.78
2022-09-23T17:35:12.142Z,99690.00
2022-09-23T17:37:39.685Z,99685.72
2022-09-23T17:40:08.316Z,99685.97
2022-09-23T17:42:39.831Z,99682.47
2022-09-23T17:45:09.256Z,99689.34
2022-09-23T17:47:41.285Z,99686.94
2022-09-23T17:50:09.630Z,99681.19
2022-09-23T17:52:37.223Z,99691.03
2022-09-23T17:55:05.876Z,99693.63
2022-09-23T17:57:33.785Z,99687.56
2022-09-23T18:00:01.545Z,99690.13
2022-09-23T18:02:39.177Z,99695.22
2022-09-23T18:05:07.936Z,99696.66
2022-09-23T18:07:37.922Z,99694.09
2022-09-23T18:10:07.172Z,99696.44
2022-09-23T18:12:35.153Z,99693.16
2022-09-23T18:15:02.988Z,99694.59
2022-09-23T18:17:30.686Z,99694.56
2022-09-23T18:19:59.227Z,99701.19
2022-09-23T18:22:26.835Z,99699.28
2022-09-23T18:24:54.492Z,99695.13
2022-09-23T18:27:22.962Z,99699.78
2022-09-23T18:29:53.143Z,99700.38
2022-09-23T18:32:20.848Z,99701.03
2022-09-23T18:34:48.912Z,99706.06
2022-09-23T18:37:16.616Z,99703.34
2022-09-23T18:39:44.651Z,99712.06
2022-09-23T18:42:12.847Z,99701.41
2022-09-23T18:44:41.776Z,99702.81
2022-09-23T18:47:09.528Z,99701.66
2022-09-23T18:49:37.464Z,99701.34
2022-09-23T18:52:05.068Z,99698.88
2022-09-23T18:54:32.718Z,99702.94
2022-09-23T18:57:00.558Z,99694.38
2022-09-23T18:59:29.866Z,99696.09
2022-09-23T19:01:57.892Z,99691.78
2022-09-23T19:04:27.006Z,99695.78
2022-09-23T19:06:55.449Z,99695.47
2022-09-23T19:09:23.558Z,99694.72
2022-09-23T19:11:52.287Z,99700.66
2022-09-23T19:14:20.233Z,99701.59
2022-09-23T19:16:47.845Z,99704.59
2022-09-23T19:19:16.491Z,99700.88
2022-09-23T19:21:44.153Z,99695.09
2022-09-23T19:24:12.287Z,99700.03
2022-09-23T19:26:40.774Z,99708.41
2022-09-23T19:29:13.707Z,99703.56
2022-09-23T19:31:42.018Z,99709.22
2022-09-23T19:34:14.770Z,99709.03
2022-09-23T19:36:44.230Z,99708.88
2022-09-23T19:39:14.794Z,99694.53
2022-09-23T19:41:43.318Z,99696.72
2022-09-23T19:44:11.272Z,99705.09
2022-09-23T19:46:40.257Z,99703.37
2022-09-23T19:49:08.438Z,99702.38
2022-09-23T19:51:36.168Z,99696.31
2022-09-23T19:54:04.986Z,99705.03
2022-09-23T19:56:33.579Z,99705.34
2022-09-23T19:59:01.738Z,99704.59
2022-09-23T20:01:30.192Z,99702.63
2022-09-23T20:03:58.655Z,99701.66
2022-09-23T20:06:29.850Z,99709.19
2022-09-23T20:08:58.843Z,99709.84
2022-09-23T20:11:28.523Z,99706.25
2022-09-23T20:13:59.624Z,99699.28
2022-09-23T20:16:35.335Z,99701.38
2022-09-23T20:19:06.923Z,99702.25
2022-09-23T20:21:35.083Z,99702.03
2022-09-23T20:24:03.540Z,99705.72
2022-09-23T20:26:31.225Z,99695.56
2022-09-23T20:28:59.256Z,99704.72
2022-09-23T20:31:27.478Z,99705.41
2022-09-23T20:33:56.692Z,99702.53
2022-09-23T20:36:28.972Z,99706.38
2022-09-23T20:38:58.527Z,99699.50
2022-09-23T20:41:30.062Z,99704.56
2022-09-23T20:43:58.576Z,99703.75
2022-09-23T20:46:27.378Z,99694.69
2022-09-23T20:48:55.181Z,99700.19
2022-09-23T20:51:23.687Z,99701.06
2022-09-23T20:53:52.174Z,99695.34
2022-09-23T20:56:20.868Z,99695.94
2022-09-23T20:58:48.859Z,99694.13
2022-09-23T21:01:17.331Z,99693.63
2022-09-23T21:03:47.158Z,99692.25
2022-09-23T21:06:16.181Z,99691.28
2022-09-23T21:08:44.218Z,99702.03
2022-09-23T21:11:14.481Z,99690.16
2022-09-23T21:13:46.431Z,99697.91
2022-09-23T21:16:15.509Z,99689.94
2022-09-23T21:18:44.127Z,99692.03
2022-09-23T21:21:12.945Z,99691.53
2022-09-23T21:23:42.164Z,99686.47
2022-09-23T21:26:12.329Z,99689.19
2022-09-23T21:28:42.384Z,99685.94
2022-09-23T21:31:16.138Z,99695.44
2022-09-23T21:33:43.724Z,99694.34
2022-09-23T21:36:11.639Z,99700.22
2022-09-23T21:38:39.496Z,99694.34
2022-09-23T21:41:08.519Z,99695.47
2022-09-23T21:43:38.315Z,99697.44
2022-09-23T21:46:08.564Z,99694.88
2022-09-23T21:48:38.336Z,99695.09
2022-09-23T21:51:10.862Z,99695.63
2022-09-23T21:53:39.245Z,99706.41
2022-09-23T21:56:12.367Z,99709.19
2022-09-23T21:58:42.048Z,99706.81
2022-09-23T22:01:11.224Z,99700.22
2022-09-23T22:03:39.474Z,99699.34
2022-09-23T22:06:12.480Z,99695.28
2022-09-23T22:08:42.138Z,99698.69
2022-09-23T22:11:12.156Z,99697.81
2022-09-23T22:13:40.004Z,99706.22
2022-09-23T22:16:07.682Z,99702.88
2022-09-23T22:18:35.448Z,99701.16
2022-09-23T22:21:03.385Z,99702.25
2022-09-23T22:23:31.007Z,99700.03
2022-09-23T22:26:03.054Z,99704.94
2022-09-23T22:28:32.618Z,99699.19
2022-09-23T22:31:00.238Z,99704.41
2022-09-23T22:33:27.879Z,99700.41
2022-09-23T22:36:02.348Z,99698.53
2022-09-23T22:38:30.019Z,99696.53
2022-09-23T22:40:58.324Z,99693.41
2022-09-23T22:43:26.001Z,99699.16
2022-09-23T22:45:53.589Z,99693.28
2022-09-23T22:48:21.613Z,99695.16
2022-09-23T22:50:49.193Z,99695.63
2022-09-23T22:53:16.751Z,99694.78
2022-09-23T22:55:44.601Z,99697.06
2022-09-23T22:58:31.222Z,99703.22
2022-09-23T23:00:59.905Z,99703.56
2022-09-23T23:03:27.601Z,99702.19
2022-09-23T23:05:59.680Z,99694.84
2022-09-23T23:08:31.168Z,99692.06
2022-09-23T23:11:06.490Z,99692.38
2022-09-23T23:13:34.469Z,99686.59
2022-09-23T23:16:06.652Z,99694.66
2022-09-23T23:18:36.496Z,99692.44
2022-09-23T23:21:13.441Z,99690.34
2022-09-23T23:23:46.549Z,99687.69
2022-09-23T23:26:20.022Z,99688.47
2022-09-23T23:28:49.091Z,99688.84
2022-09-23T23:31:18.873Z,99688.81
2022-09-23T23:33:47.049Z,99688.25
2022-09-23T23:36:17.534Z,99690.13
2022-09-23T23:38:46.572Z,99679.19
2022-09-23T23:41:16.611Z,99676.59
2022-09-23T23:43:46.415Z,99688.63
2022-09-23T23:46:15.006Z,99682.28
2022-09-23T23:48:42.905Z,99680.69
2022-09-23T23:51:11.503Z,99682.56
2022-09-23T23:53:40.140Z,99680.09
2022-09-23T23:56:13.369Z,99679.56
2022-09-23T23:58:41.703Z,99687.06
